createdAt,value
2022-12-08T00:01:17.731Z,28.07
2022-12-08T00:03:44.959Z,26.30
2022-12-08T00:06:42.096Z,27.83
2022-12-08T00:09:22.338Z,22.83
2022-12-08T00:12:08.548Z,25.90
2022-12-08T00:14:40.567Z,24.63
2022-12-08T00:17:09.691Z,22.30
2022-12-08T00:19:37.030Z,24.53
2022-12-08T00:22:03.495Z,23.73
2022-12-08T00:24:31.832Z,26.93
2022-12-08T00:26:58.381Z,26.77
2022-12-08T00:29:24.888Z,25.00
2022-12-08T00:31:51.418Z,24.87
2022-12-08T00:34:18.071Z,29.47
2022-12-08T00:36:45.063Z,26.93
2022-12-08T00:39:12.956Z,28.93
2022-12-08T00:41:58.066Z,25.27
2022-12-08T00:44:24.768Z,24.27
2022-12-08T00:46:51.357Z,25.53
2022-12-08T00:49:18.010Z,26.33
2022-12-08T00:51:44.868Z,23.23
2022-12-08T00:54:11.677Z,27.83
2022-12-08T00:56:38.424Z,25.30
2022-12-08T00:59:05.686Z,26.93
2022-12-08T01:01:32.774Z,21.87
2022-12-08T01:04:10.417Z,24.63
2022-12-08T01:06:38.988Z,22.57
2022-12-08T01:09:06.941Z,23.87
2022-12-08T01:11:34.296Z,23.80
2022-12-08T01:14:00.794Z,23.73
2022-12-08T01:16:33.816Z,23.33
2022-12-08T01:19:01.306Z,25.50
2022-12-08T01:21:28.218Z,21.77
2022-12-08T01:23:55.468Z,22.03
2022-12-08T01:26:22.205Z,21.50
2022-12-08T01:28:48.804Z,21.83
2022-12-08T01:31:19.456Z,19.13
2022-12-08T01:33:47.372Z,20.47
2022-12-08T01:36:31.532Z,21.87
2022-12-08T01:39:02.064Z,22.37
2022-12-08T01:41:31.943Z,22.03
2022-12-08T01:44:00.514Z,18.90
2022-12-08T01:46:29.711Z,23.00
2022-12-08T01:49:00.886Z,19.57
2022-12-08T01:51:28.644Z,19.43
2022-12-08T01:53:55.192Z,18.97
2022-12-08T01:56:31.693Z,16.03
2022-12-08T01:58:59.090Z,17.83
2022-12-08T02:01:25.791Z,17.60
2022-12-08T02:03:59.439Z,20.10
2022-12-08T02:06:28.555Z,22.73
2022-12-08T02:08:55.931Z,16.60
2022-12-08T02:11:22.658Z,15.37
2022-12-08T02:13:52.309Z,16.67
2022-12-08T02:16:43.664Z,16.10
2022-12-08T02:19:37.825Z,17.83
2022-12-08T02:22:07.256Z,14.80
2022-12-08T02:24:45.891Z,15.17
2022-12-08T02:27:35.535Z,14.53
2022-12-08T02:30:46.160Z,15.40
2022-12-08T02:33:15.380Z,15.80
2022-12-08T02:35:58.592Z,14.90
2022-12-08T02:38:42.403Z,16.50
2022-12-08T02:41:29.176Z,14.30
2022-12-08T02:44:06.280Z,16.70
2022-12-08T02:46:38.224Z,18.40
2022-12-08T02:49:05.974Z,16.13
2022-12-08T02:51:32.525Z,15.63
2022-12-08T02:54:00.750Z,17.37
2022-12-08T02:56:38.634Z,16.27
2022-12-08T02:59:25.158Z,16.87
2022-12-08T03:02:17.943Z,18.70
2022-12-08T03:05:22.176Z,15.13
2022-12-08T03:08:13.083Z,18.90
2022-12-08T03:10:52.442Z,17.97
2022-12-08T03:13:26.675Z,17.73
2022-12-08T03:15:55.661Z,15.47
2022-12-08T03:18:26.963Z,17.33
2022-12-08T03:20:53.632Z,19.70
2022-12-08T03:23:22.130Z,19.73
2022-12-08T03:25:56.581Z,16.30
2022-12-08T03:28:23.264Z,19.47
2022-12-08T03:30:55.575Z,19.87
2022-12-08T03:33:32.868Z,21.23
2022-12-08T03:36:02.328Z,23.03
2022-12-08T03:38:37.751Z,20.53
2022-12-08T03:41:30.432Z,24.80
2022-12-08T03:44:00.990Z,23.40
2022-12-08T03:48:55.683Z,18.57
2022-12-08T03:51:22.903Z,20.97
2022-12-08T03:53:50.256Z,23.90
2022-12-08T03:56:38.894Z,23.63
2022-12-08T03:59:06.513Z,23.90
2022-12-08T04:01:33.861Z,23.47
2022-12-08T04:04:00.373Z,21.30
2022-12-08T04:06:26.859Z,22.30
2022-12-08T04:08:53.456Z,22.70
2022-12-08T04:11:20.323Z,23.03
2022-12-08T04:13:47.111Z,25.47
2022-12-08T04:16:22.606Z,26.27
2022-12-08T04:18:49.634Z,24.57
2022-12-08T04:21:16.226Z,26.33
2022-12-08T04:23:42.970Z,27.77
2022-12-08T04:26:09.742Z,27.53
2022-12-08T04:28:36.561Z,26.30
2022-12-08T04:31:03.677Z,26.17
2022-12-08T04:33:30.248Z,29.67
2022-12-08T04:35:56.788Z,27.70
2022-12-08T04:38:23.896Z,26.47
2022-12-08T04:40:50.362Z,27.90
2022-12-08T04:43:16.888Z,30.50
2022-12-08T04:45:43.521Z,27.37
2022-12-08T04:48:13.153Z,28.17
2022-12-08T04:50:41.908Z,26.47
2022-12-08T04:53:09.353Z,30.23
2022-12-08T04:55:39.573Z,27.20
2022-12-08T04:58:06.074Z,30.77
2022-12-08T05:00:32.536Z,26.43
2022-12-08T05:02:59.097Z,29.73
2022-12-08T05:05:25.728Z,30.40
2022-12-08T05:07:52.248Z,28.70
2022-12-08T05:10:18.800Z,30.43
2022-12-08T05:12:45.271Z,31.00
2022-12-08T05:15:11.838Z,29.47
2022-12-08T05:17:38.362Z,28.00
2022-12-08T05:20:06.289Z,27.23
2022-12-08T05:22:33.125Z,29.67
2022-12-08T05:24:59.706Z,31.73
2022-12-08T05:27:26.608Z,29.87
2022-12-08T05:29:53.094Z,30.50
2022-12-08T05:32:19.621Z,29.63
2022-12-08T05:34:46.112Z,25.87
2022-12-08T05:37:12.688Z,30.27
2022-12-08T05:39:39.182Z,27.87
2022-12-08T05:42:06.188Z,28.67
2022-12-08T05:44:32.664Z,24.93
2022-12-08T05:46:59.272Z,26.83
2022-12-08T05:49:26.223Z,28.33
2022-12-08T05:51:52.684Z,26.57
2022-12-08T05:54:19.217Z,28.27
2022-12-08T05:56:45.837Z,24.63
2022-12-08T05:59:12.426Z,28.00
2022-12-08T06:01:39.175Z,27.13
2022-12-08T06:04:05.743Z,27.40
2022-12-08T06:06:35.132Z,27.17
2022-12-08T06:09:06.175Z,30.83
2022-12-08T06:11:33.503Z,27.40
2022-12-08T06:14:00.348Z,27.33
2022-12-08T06:16:28.244Z,27.13
2022-12-08T06:18:55.576Z,26.70
2022-12-08T06:21:22.435Z,29.73
2022-12-08T06:23:50.684Z,29.13
2022-12-08T06:26:17.783Z,28.37
2022-12-08T06:28:44.574Z,24.80
2022-12-08T06:31:14.904Z,27.67
2022-12-08T06:33:41.603Z,26.10
2022-12-08T06:36:08.142Z,25.67
2022-12-08T06:38:38.117Z,28.63
2022-12-08T06:41:07.409Z,29.00
2022-12-08T06:43:34.124Z,30.17
2022-12-08T06:46:01.754Z,28.80
2022-12-08T06:48:28.386Z,31.43
2022-12-08T06:50:54.848Z,30.90
2022-12-08T06:53:21.399Z,35.37
2022-12-08T06:56:00.377Z,27.83
2022-12-08T06:58:26.943Z,30.40
2022-12-08T07:00:53.786Z,30.37
2022-12-08T07:03:20.571Z,34.30
2022-12-08T07:05:47.469Z,28.63
2022-12-08T07:08:14.136Z,33.37
2022-12-08T07:10:41.621Z,36.03
2022-12-08T07:13:08.097Z,31.83
2022-12-08T07:15:34.602Z,32.50
2022-12-08T07:18:01.088Z,29.27
2022-12-08T07:20:27.989Z,29.47
2022-12-08T07:22:54.564Z,30.90
2022-12-08T07:25:21.182Z,31.47
2022-12-08T07:27:48.048Z,29.67
2022-12-08T07:30:14.967Z,28.40
2022-12-08T07:32:41.486Z,25.50
2022-12-08T07:35:10.516Z,29.17
2022-12-08T07:37:37.601Z,28.93
2022-12-08T07:40:06.561Z,28.07
2022-12-08T07:42:33.336Z,25.57
2022-12-08T07:45:00.606Z,24.67
2022-12-08T07:47:27.190Z,27.53
2022-12-08T07:49:53.706Z,21.73
2022-12-08T07:52:20.308Z,24.07
2022-12-08T07:54:47.355Z,23.77
2022-12-08T07:57:13.911Z,23.03
2022-12-08T07:59:40.407Z,20.83
2022-12-08T08:02:24.227Z,23.07
2022-12-08T08:04:51.939Z,18.90
2022-12-08T08:07:18.450Z,19.17
2022-12-08T08:09:50.101Z,22.20
2022-12-08T08:12:32.753Z,19.57
2022-12-08T08:15:01.315Z,19.60
2022-12-08T08:17:28.662Z,20.43
2022-12-08T08:19:55.319Z,18.50
2022-12-08T08:22:21.780Z,21.20
2022-12-08T08:24:48.270Z,22.37
2022-12-08T08:27:14.781Z,20.07
2022-12-08T08:29:41.290Z,19.20
2022-12-08T08:32:07.889Z,16.57
2022-12-08T08:34:34.330Z,17.90
2022-12-08T08:37:00.916Z,17.97
2022-12-08T08:39:27.500Z,16.70
2022-12-08T08:41:54.102Z,18.57
2022-12-08T08:44:20.568Z,17.77
2022-12-08T08:46:47.151Z,16.90
2022-12-08T08:49:13.992Z,15.97
2022-12-08T08:51:40.697Z,16.13
2022-12-08T08:54:07.147Z,15.93
2022-12-08T08:56:33.599Z,17.90
2022-12-08T08:59:00.080Z,17.97
2022-12-08T09:01:28.223Z,17.53
2022-12-08T09:03:57.821Z,17.33
2022-12-08T09:06:24.937Z,14.67
2022-12-08T09:08:51.952Z,16.87
2022-12-08T09:11:18.701Z,13.40
2022-12-08T09:13:49.342Z,14.90
2022-12-08T09:16:16.564Z,14.17
2022-12-08T09:18:43.245Z,15.93
2022-12-08T09:21:13.183Z,14.03
2022-12-08T09:23:39.733Z,15.63
2022-12-08T09:26:06.674Z,14.67
2022-12-08T09:28:33.600Z,15.00
2022-12-08T09:31:01.448Z,14.43
2022-12-08T09:33:27.987Z,14.23
2022-12-08T09:35:54.732Z,12.80
2022-12-08T09:38:21.265Z,13.90
2022-12-08T09:40:54.760Z,14.80
2022-12-08T09:43:31.741Z,14.30
2022-12-08T09:45:58.619Z,14.07
2022-12-08T09:48:34.093Z,14.53
2022-12-08T09:51:01.202Z,14.67
2022-12-08T09:53:35.985Z,14.97
2022-12-08T09:56:13.252Z,16.80
2022-12-08T09:58:55.025Z,14.17
2022-12-08T10:01:23.740Z,14.27
2022-12-08T10:03:50.314Z,14.30
2022-12-08T10:06:46.415Z,15.00
2022-12-08T10:09:34.740Z,15.60
2022-12-08T10:12:18.626Z,15.23
2022-12-08T10:15:05.482Z,14.10
2022-12-08T10:17:36.079Z,15.57
2022-12-08T10:20:21.588Z,16.33
2022-12-08T10:22:57.287Z,18.63
2022-12-08T10:25:46.884Z,14.43
2022-12-08T10:28:14.192Z,17.23
2022-12-08T10:30:41.073Z,14.40
2022-12-08T10:33:15.743Z,15.97
2022-12-08T10:36:04.614Z,16.77
2022-12-08T10:38:33.242Z,15.13
2022-12-08T10:41:11.742Z,15.33
2022-12-08T10:43:43.665Z,15.90
2022-12-08T10:46:12.697Z,13.17
2022-12-08T10:48:52.493Z,14.00
2022-12-08T10:51:42.648Z,13.50
2022-12-08T10:54:29.709Z,11.13
2022-12-08T10:56:57.341Z,14.90
2022-12-08T10:59:25.626Z,16.07
2022-12-08T11:01:55.049Z,12.00
2022-12-08T11:04:41.025Z,13.50
2022-12-08T11:07:11.618Z,11.87
2022-12-08T11:09:48.108Z,12.73
2022-12-08T11:12:17.703Z,10.87
2022-12-08T11:14:44.096Z,12.40
2022-12-08T11:17:21.776Z,10.90
2022-12-08T11:19:56.129Z,12.23
2022-12-08T11:22:24.656Z,12.47
2022-12-08T11:24:59.096Z,14.63
2022-12-08T11:27:26.159Z,14.10
2022-12-08T11:29:52.814Z,12.77
2022-12-08T11:32:19.414Z,17.80
2022-12-08T11:34:53.977Z,13.83
2022-12-08T11:37:34.678Z,13.30
2022-12-08T11:40:07.100Z,16.03
2022-12-08T11:42:43.969Z,14.57
2022-12-08T11:45:20.134Z,12.13
2022-12-08T11:47:57.267Z,13.07
2022-12-08T11:50:59.995Z,16.37
2022-12-08T11:53:30.468Z,12.47
2022-12-08T11:56:03.707Z,12.37
2022-12-08T11:58:46.936Z,12.53
2022-12-08T12:01:21.215Z,10.10
2022-12-08T12:04:17.277Z,13.87
2022-12-08T12:07:31.719Z,11.57
2022-12-08T12:10:07.594Z,13.07
2022-12-08T12:12:46.264Z,13.73
2022-12-08T12:15:15.744Z,12.93
2022-12-08T12:17:50.929Z,12.20
2022-12-08T12:21:01.489Z,12.77
2022-12-08T12:24:02.680Z,11.67
2022-12-08T12:26:31.978Z,13.23
2022-12-08T12:29:03.669Z,12.23
2022-12-08T12:31:32.431Z,11.40
2022-12-08T12:34:21.036Z,14.47
2022-12-08T12:36:59.569Z,12.27
2022-12-08T12:39:30.630Z,13.67
2022-12-08T12:42:00.197Z,13.37
2022-12-08T12:44:29.728Z,12.53
2022-12-08T12:46:59.370Z,11.53
2022-12-08T12:49:37.762Z,13.23
2022-12-08T12:52:10.351Z,11.40
2022-12-08T12:54:42.623Z,11.00
2022-12-08T12:57:09.188Z,12.23
2022-12-08T12:59:35.589Z,9.10
2022-12-08T13:02:02.726Z,10.20
2022-12-08T13:04:35.925Z,8.63
2022-12-08T13:07:02.921Z,7.73
2022-12-08T13:09:37.010Z,8.73
2022-12-08T13:12:12.742Z,8.13
2022-12-08T13:14:47.500Z,9.00
2022-12-08T13:17:20.260Z,12.20
2022-12-08T13:19:51.687Z,8.93
2022-12-08T13:22:55.964Z,9.33
2022-12-08T13:25:40.765Z,9.00
2022-12-08T13:28:16.346Z,7.63
2022-12-08T13:30:44.259Z,5.23
2022-12-08T13:33:18.371Z,5.50
2022-12-08T13:35:51.988Z,7.63
2022-12-08T13:38:21.367Z,7.00
2022-12-08T13:40:49.159Z,6.43
2022-12-08T13:43:25.885Z,8.57
2022-12-08T13:57:32.914Z,6.73
2022-12-08T14:00:02.721Z,6.93
2022-12-08T14:02:51.289Z,7.47
2022-12-08T14:05:40.575Z,9.33
2022-12-08T14:08:57.868Z,7.13
2022-12-08T14:11:34.643Z,6.30
2022-12-08T14:14:07.438Z,7.87
2022-12-08T14:16:40.120Z,7.73
2022-12-08T14:19:19.445Z,6.77
2022-12-08T14:21:55.966Z,8.60
2022-12-08T14:24:26.834Z,5.40
2022-12-08T14:26:57.057Z,7.80
2022-12-08T14:29:36.432Z,5.37
2022-12-08T14:32:03.347Z,7.50
2022-12-08T14:34:30.274Z,6.77
2022-12-08T14:36:56.864Z,7.23
2022-12-08T14:39:23.629Z,5.63
2022-12-08T14:42:00.604Z,6.00
2022-12-08T14:44:31.376Z,7.90
2022-12-08T14:47:06.302Z,6.63
2022-12-08T14:49:38.729Z,6.47
2022-12-08T14:52:11.443Z,5.93
2022-12-08T14:54:39.861Z,7.27
2022-12-08T14:57:07.495Z,8.27
2022-12-08T14:59:39.161Z,7.47
2022-12-08T15:02:25.202Z,7.23
2022-12-08T15:05:00.514Z,6.83
2022-12-08T15:07:30.997Z,6.23
2022-12-08T15:10:07.057Z,8.03
2022-12-08T15:12:34.056Z,8.07
2022-12-08T15:15:09.739Z,9.20
2022-12-08T15:17:48.907Z,7.93
2022-12-08T15:20:42.737Z,8.87
2022-12-08T15:23:31.216Z,10.13
2022-12-08T15:25:58.896Z,6.53
2022-12-08T15:28:30.318Z,7.37
2022-12-08T15:30:58.269Z,8.07
2022-12-08T15:33:25.407Z,13.27
2022-12-08T15:35:52.758Z,13.17
2022-12-08T15:38:24.705Z,11.17
2022-12-08T15:40:52.675Z,10.97
2022-12-08T15:43:19.995Z,13.30
2022-12-08T15:45:57.949Z,7.97
2022-12-08T15:48:27.205Z,8.20
2022-12-08T15:50:54.795Z,7.03
2022-12-08T15:53:21.472Z,9.13
2022-12-08T15:56:19.000Z,6.73
2022-12-08T15:58:53.991Z,8.67
2022-12-08T16:01:21.219Z,8.80
2022-12-08T16:09:39.024Z,8.50
2022-12-08T16:12:57.178Z,8.10
2022-12-08T16:18:06.182Z,6.97
2022-12-08T16:20:58.927Z,10.77
2022-12-08T16:23:41.831Z,9.80
2022-12-08T16:26:24.056Z,8.97
2022-12-08T16:28:54.848Z,11.63
2022-12-08T16:31:23.314Z,11.53
2022-12-08T16:33:50.188Z,14.37
2022-12-08T16:36:16.752Z,11.93
2022-12-08T16:38:43.369Z,12.40
2022-12-08T16:41:36.300Z,11.40
2022-12-08T16:44:05.160Z,13.70
2022-12-08T16:46:32.040Z,14.47
2022-12-08T16:48:58.958Z,17.97
2022-12-08T16:51:27.262Z,26.77
2022-12-08T16:53:56.833Z,24.70
2022-12-08T16:56:30.448Z,21.13
2022-12-08T16:58:59.073Z,18.53
2022-12-08T17:01:25.733Z,20.50
2022-12-08T17:04:22.475Z,15.27
2022-12-08T17:06:39.482Z,16.00
2022-12-08T17:09:06.204Z,11.77
2022-12-08T17:11:36.210Z,12.10
2022-12-08T17:14:05.892Z,14.67
2022-12-08T17:16:32.527Z,15.27
2022-12-08T17:18:59.170Z,16.93
2022-12-08T17:21:25.808Z,15.10
2022-12-08T17:23:52.420Z,14.63
2022-12-08T17:26:18.972Z,14.73
2022-12-08T17:29:00.562Z,12.90
2022-12-08T17:31:30.158Z,15.27
2022-12-08T17:34:05.594Z,15.53
2022-12-08T17:36:32.522Z,19.10
2022-12-08T17:39:01.186Z,18.47
2022-12-08T17:41:28.579Z,24.10
2022-12-08T17:43:55.285Z,18.47
2022-12-08T17:46:23.336Z,19.57
2022-12-08T17:48:50.464Z,18.33
2022-12-08T17:51:17.496Z,19.30
2022-12-08T17:53:44.389Z,19.60
2022-12-08T17:56:17.417Z,20.00
2022-12-08T17:58:45.693Z,22.20
2022-12-08T18:01:14.251Z,24.93
2022-12-08T18:03:40.847Z,29.63
2022-12-08T18:06:12.346Z,36.50
2022-12-08T18:08:39.907Z,41.27
2022-12-08T18:11:14.893Z,42.37
2022-12-08T18:13:41.526Z,38.83
2022-12-08T18:16:08.337Z,38.27
2022-12-08T18:18:34.999Z,40.13
2022-12-08T18:21:01.567Z,35.57
2022-12-08T18:23:28.145Z,28.27
2022-12-08T18:25:54.733Z,21.20
2022-12-08T18:28:21.331Z,16.13
2022-12-08T18:30:47.961Z,13.80
2022-12-08T18:33:14.678Z,17.17
2022-12-08T18:35:41.530Z,14.63
2022-12-08T18:38:08.056Z,17.23
2022-12-08T18:40:34.619Z,19.53
2022-12-08T18:43:01.160Z,17.80
2022-12-08T18:45:27.804Z,19.97
2022-12-08T18:47:54.746Z,18.53
2022-12-08T18:50:21.375Z,22.40
2022-12-08T18:52:48.356Z,22.43
2022-12-08T18:55:15.559Z,18.90
2022-12-08T18:57:43.267Z,20.17
2022-12-08T19:00:18.305Z,18.63
2022-12-08T19:02:45.297Z,19.13
2022-12-08T19:05:13.637Z,24.83
2022-12-08T19:07:42.356Z,21.57
2022-12-08T19:10:09.687Z,24.13
2022-12-08T19:12:36.634Z,22.10
2022-12-08T19:15:04.266Z,21.80
2022-12-08T19:17:31.031Z,19.20
2022-12-08T19:19:57.719Z,24.97
2022-12-08T19:22:24.318Z,25.87
2022-12-08T19:24:50.950Z,22.70
2022-12-08T19:27:18.558Z,25.80
2022-12-08T19:29:45.279Z,24.43
2022-12-08T19:32:11.963Z,24.70
2022-12-08T19:34:38.507Z,27.60
2022-12-08T19:37:05.157Z,24.17
2022-12-08T19:39:50.458Z,27.43
2022-12-08T19:42:38.707Z,34.53
2022-12-08T19:45:17.519Z,33.83
2022-12-08T19:47:44.271Z,32.90
2022-12-08T19:50:33.207Z,32.10
2022-12-08T19:53:00.920Z,30.53
2022-12-08T19:55:28.222Z,27.80
2022-12-08T19:57:56.675Z,22.67
2022-12-08T20:00:23.784Z,24.43
2022-12-08T20:02:50.469Z,25.50
2022-12-08T20:05:17.301Z,21.97
2022-12-08T20:07:43.976Z,19.23
2022-12-08T20:10:22.170Z,21.63
2022-12-08T20:12:48.949Z,22.27
2022-12-08T20:15:15.557Z,24.33
2022-12-08T20:17:42.691Z,24.97
2022-12-08T20:20:12.121Z,25.07
2022-12-08T20:22:38.826Z,27.57
2022-12-08T20:25:05.851Z,29.63
2022-12-08T20:27:32.953Z,28.10
2022-12-08T20:29:59.629Z,26.73
2022-12-08T20:32:26.271Z,26.97
2022-12-08T20:34:52.948Z,24.97
2022-12-08T20:37:19.780Z,21.23
2022-12-08T20:39:46.411Z,23.83
2022-12-08T20:42:13.794Z,20.07
2022-12-08T20:44:44.245Z,19.50
2022-12-08T20:47:12.144Z,19.57
2022-12-08T20:49:38.999Z,24.10
2022-12-08T20:52:05.652Z,25.53
2022-12-08T20:54:32.231Z,26.03
2022-12-08T20:56:58.765Z,23.03
2022-12-08T20:59:26.434Z,23.23
2022-12-08T21:01:53.998Z,24.23
2022-12-08T21:04:21.497Z,19.73
2022-12-08T21:06:48.659Z,19.60
2022-12-08T21:09:15.471Z,20.63
2022-12-08T21:11:42.148Z,21.37
2022-12-08T21:14:08.853Z,32.77
2022-12-08T21:16:35.784Z,28.27
2022-12-08T21:19:02.775Z,28.77
2022-12-08T21:21:29.508Z,22.83
2022-12-08T21:23:56.168Z,25.50
2022-12-08T21:26:26.048Z,22.07
2022-12-08T21:28:54.813Z,22.33
2022-12-08T21:31:22.295Z,19.90
2022-12-08T21:33:49.330Z,20.27
2022-12-08T21:36:18.758Z,24.07
2022-12-08T21:38:46.582Z,30.10
2022-12-08T21:41:16.315Z,24.93
2022-12-08T21:43:43.456Z,25.63
2022-12-08T21:46:17.343Z,27.23
2022-12-08T21:48:44.486Z,33.50
2022-12-08T21:51:11.299Z,36.13
2022-12-08T21:53:38.092Z,28.53
2022-12-08T21:56:09.215Z,50.87
2022-12-08T21:58:36.028Z,50.80
2022-12-08T22:01:07.474Z,46.30
2022-12-08T22:03:34.432Z,29.77
2022-12-08T22:06:06.114Z,28.17
2022-12-08T22:08:33.272Z,27.77
2022-12-08T22:11:00.827Z,29.80
2022-12-08T22:13:27.706Z,24.33
2022-12-08T22:16:02.636Z,22.73
2022-12-08T22:18:29.540Z,19.87
2022-12-08T22:20:56.555Z,24.30
2022-12-08T22:23:24.266Z,20.43
2022-12-08T22:25:58.411Z,21.07
2022-12-08T22:28:26.039Z,24.17
2022-12-08T22:30:53.505Z,24.00
2022-12-08T22:33:20.673Z,22.23
2022-12-08T22:35:58.522Z,22.90
2022-12-08T22:38:25.369Z,24.67
2022-12-08T22:40:52.826Z,25.80
2022-12-08T22:43:20.140Z,22.03
2022-12-08T22:45:46.983Z,20.40
2022-12-08T22:48:14.474Z,23.23
2022-12-08T22:50:41.921Z,28.50
2022-12-08T22:53:11.541Z,24.80
2022-12-08T22:55:44.828Z,22.57
2022-12-08T22:58:12.295Z,22.30
2022-12-08T23:00:39.445Z,25.73
2022-12-08T23:03:06.534Z,23.90
2022-12-08T23:05:35.131Z,20.83
2022-12-08T23:08:02.968Z,25.73
2022-12-08T23:10:30.479Z,30.53
2022-12-08T23:13:03.520Z,26.40
2022-12-08T23:15:30.703Z,24.87
2022-12-08T23:17:57.497Z,24.63
2022-12-08T23:20:24.461Z,24.80
2022-12-08T23:22:51.134Z,23.77
2022-12-08T23:25:18.566Z,23.50
2022-12-08T23:27:46.134Z,23.70
2022-12-08T23:30:13.539Z,27.33
2022-12-08T23:32:40.244Z,22.63
2022-12-08T23:35:07.654Z,26.03
2022-12-08T23:37:34.779Z,25.63
2022-12-08T23:40:02.013Z,24.80
2022-12-08T23:42:30.454Z,23.43
2022-12-08T23:44:57.114Z,27.77
2022-12-08T23:47:24.149Z,23.13
2022-12-08T23:49:51.136Z,30.83
2022-12-08T23:52:17.743Z,38.40
2022-12-08T23:54:44.952Z,46.10
2022-12-08T23:57:11.685Z,53.70
2022-12-08T23:59:38.276Z,39.77
